Time;durP1;ratioP1;P1;durP2;ratioP2;P2;SDS_P1;SDS_P2;PMS_P1;PMS_P2;Temp;Humidity;BMP_temperature;BMP_pressure;BME280_temperature;BME280_humidity;BME280_pressure;Samples;Min_cycle;Max_cycle;Signal;HPM_P1;HPM_P2
2022/05/23 00:00:35;;;;;;;1.92;1.00;;;17.00;79.50;;;;;;4170470;28;20169;-78
2022/05/23 00:02:37;;;;;;;1.67;1.58;;;17.00;79.50;;;;;;4185633;28;20057;-79
2022/05/23 00:04:39;;;;;;;2.83;1.23;;;17.00;79.30;;;;;;4180841;28;20179;-79
2022/05/23 00:06:42;;;;;;;1.25;0.82;;;17.00;79.40;;;;;;4178361;28;20042;-79
2022/05/23 00:08:44;;;;;;;2.20;0.95;;;16.90;80.30;;;;;;4186967;28;20168;-79
2022/05/23 00:10:46;;;;;;;2.53;1.15;;;16.90;81.30;;;;;;4184048;28;20089;-79
2022/05/23 00:12:48;;;;;;;1.73;1.05;;;16.80;81.70;;;;;;4177234;28;20128;-78
2022/05/23 00:14:51;;;;;;;2.72;1.05;;;16.70;81.50;;;;;;4179997;28;20104;-79
2022/05/23 00:16:52;;;;;;;1.40;0.98;;;16.70;82.00;;;;;;4178882;28;20081;-78
2022/05/23 00:18:54;;;;;;;1.85;1.02;;;16.60;82.00;;;;;;4174089;28;20896;-79
2022/05/23 00:20:56;;;;;;;2.28;1.00;;;16.60;82.10;;;;;;4181890;28;20060;-78
2022/05/23 00:22:58;;;;;;;2.38;0.90;;;16.50;82.60;;;;;;4182390;28;20100;-78
2022/05/23 00:24:59;;;;;;;1.67;1.30;;;16.50;83.40;;;;;;4173314;28;20093;-78
2022/05/23 00:27:01;;;;;;;0.93;0.77;;;16.40;83.70;;;;;;4172676;28;20169;-78
2022/05/23 00:29:03;;;;;;;1.20;1.00;;;16.40;83.70;;;;;;4178461;28;20070;-78
2022/05/23 00:31:06;;;;;;;1.23;0.80;;;16.30;83.70;;;;;;4176807;28;20061;-79
2022/05/23 00:35:29;;;;;;;3.63;1.10;;;16.20;83.90;;;;;;4185485;28;20053;-78
2022/05/23 00:37:30;;;;;;;1.40;1.30;;;16.20;84.80;;;;;;4182957;28;20911;-79
2022/05/23 00:39:32;;;;;;;2.63;1.10;;;16.10;85.40;;;;;;4186699;28;20057;-78
2022/05/23 00:44:05;;;;;;;1.30;1.10;;;16.10;86.40;;;;;;4183185;28;20118;-79
2022/05/23 00:46:06;;;;;;;3.08;1.02;;;16.00;86.20;;;;;;4186260;28;20081;-78
2022/05/23 00:48:12;;;;;;;2.13;0.90;;;16.00;86.20;;;;;;4189256;28;20081;-79
2022/05/23 00:50:16;;;;;;;1.25;1.08;;;15.90;86.50;;;;;;4189717;28;20088;-79
2022/05/23 00:52:25;;;;;;;1.25;1.15;;;15.90;86.90;;;;;;4178474;28;20058;-78
2022/05/23 00:54:35;;;;;;;2.45;1.08;;;15.90;87.20;;;;;;4186427;28;20061;-79
2022/05/23 00:56:45;;;;;;;1.83;1.20;;;15.90;86.80;;;;;;4188991;28;20061;-79
2022/05/23 00:58:52;;;;;;;1.30;1.00;;;15.90;87.00;;;;;;4178612;28;20845;-78
2022/05/23 01:00:57;;;;;;;1.10;1.00;;;15.90;87.00;;;;;;4187623;28;20097;-79
2022/05/23 01:03:04;;;;;;;1.95;1.05;;;15.80;86.60;;;;;;4184088;28;20057;-78
2022/05/23 01:05:08;;;;;;;1.20;1.10;;;15.90;86.20;;;;;;4182864;28;20092;-79
2022/05/23 01:07:12;;;;;;;3.08;1.10;;;15.90;85.90;;;;;;4187900;28;20092;-79
2022/05/23 01:09:13;;;;;;;2.35;1.17;;;15.90;85.60;;;;;;4186519;28;20148;-78
2022/05/23 01:11:15;;;;;;;1.45;1.05;;;15.90;86.10;;;;;;4188347;28;20052;-79
2022/05/23 01:13:17;;;;;;;2.33;1.10;;;15.90;86.80;;;;;;4180870;28;20156;-79
2022/05/23 01:15:25;;;;;;;1.35;1.20;;;15.90;87.00;;;;;;4180788;28;20101;-79
2022/05/23 01:17:28;;;;;;;1.25;0.90;;;15.80;87.10;;;;;;4178030;28;20065;-78
2022/05/23 01:19:29;;;;;;;1.90;0.90;;;15.70;87.40;;;;;;4178609;28;20057;-78
2022/05/23 01:21:58;;;;;;;1.40;1.30;;;15.70;87.50;;;;;;4167676;28;20161;-78
2022/05/23 01:24:29;;;;;;;3.20;1.20;;;15.70;87.80;;;;;;4174061;28;20076;-78
2022/05/23 01:26:32;;;;;;;;;;;15.70;88.10;;;;;;4177207;28;20065;-78
2022/05/23 01:28:38;;;;;;;2.08;1.20;;;15.60;88.70;;;;;;4185806;28;19929;-78
2022/05/23 01:30:41;;;;;;;2.47;1.23;;;15.50;89.00;;;;;;4184028;28;21695;-78
2022/05/23 01:32:43;;;;;;;1.67;1.10;;;15.50;89.90;;;;;;4180652;28;20132;-79
2022/05/23 01:34:44;;;;;;;2.05;0.95;;;15.40;90.20;;;;;;4183870;28;20089;-78
2022/05/23 01:36:46;;;;;;;3.45;1.83;;;15.40;90.50;;;;;;4175451;28;20112;-78
2022/05/23 01:38:49;;;;;;;1.95;1.60;;;15.40;90.30;;;;;;4182342;28;20034;-79
2022/05/23 01:40:51;;;;;;;1.92;1.25;;;15.40;90.30;;;;;;4180501;28;20049;-78
2022/05/23 01:42:53;;;;;;;1.58;0.98;;;15.40;90.30;;;;;;4181465;28;20057;-78
2022/05/23 01:44:55;;;;;;;2.85;1.30;;;15.40;90.50;;;;;;4167894;28;20092;-78
2022/05/23 01:46:56;;;;;;;1.83;1.45;;;15.30;90.10;;;;;;4179920;28;20062;-78
2022/05/23 01:48:58;;;;;;;1.65;1.20;;;15.40;89.80;;;;;;4178382;28;20100;-78
2022/05/23 01:51:00;;;;;;;3.10;1.08;;;15.40;89.30;;;;;;4175719;28;20054;-78
2022/05/23 01:53:02;;;;;;;1.55;1.17;;;15.40;89.80;;;;;;4162792;22;20055;-74
2022/05/23 01:55:04;;;;;;;1.98;1.42;;;15.40;89.80;;;;;;4117888;28;20066;-74
2022/05/23 01:57:09;;;;;;;1.30;1.20;;;15.40;89.00;;;;;;4118829;28;20055;-75
2022/05/23 02:01:31;;;;;;;2.83;1.65;;;15.40;90.10;;;;;;4118965;28;20059;-74
2022/05/23 02:03:33;;;;;;;3.42;1.15;;;15.40;90.20;;;;;;4116495;28;20070;-74
2022/05/23 02:05:36;;;;;;;0.88;0.88;;;15.30;90.30;;;;;;4116116;28;20099;-74
2022/05/23 02:07:37;;;;;;;1.30;1.15;;;15.30;90.50;;;;;;4117144;28;20146;-74
2022/05/23 02:09:40;;;;;;;1.70;1.02;;;15.30;90.40;;;;;;4117985;28;20098;-75
2022/05/23 02:11:42;;;;;;;3.80;1.25;;;15.30;90.30;;;;;;4115412;28;20936;-74
2022/05/23 02:13:44;;;;;;;2.00;1.33;;;15.30;90.40;;;;;;4114979;28;20066;-75
2022/05/23 02:15:46;;;;;;;1.58;1.02;;;15.30;90.70;;;;;;4117369;28;20066;-74
2022/05/23 02:17:48;;;;;;;2.88;1.30;;;15.30;90.60;;;;;;4117659;28;20182;-74
2022/05/23 02:19:49;;;;;;;3.28;1.95;;;15.20;90.50;;;;;;4117916;28;20158;-75
2022/05/23 02:21:51;;;;;;;1.17;1.10;;;15.20;90.60;;;;;;4113681;28;20059;-74
2022/05/23 02:23:53;;;;;;;1.15;0.98;;;15.20;90.80;;;;;;4117546;28;20629;-74
2022/05/23 02:25:54;;;;;;;2.50;1.50;;;15.10;90.80;;;;;;4118220;28;20062;-75
2022/05/23 02:27:56;;;;;;;2.13;1.27;;;15.10;90.90;;;;;;4117608;28;20094;-74
2022/05/23 02:29:58;;;;;;;1.58;1.20;;;15.10;91.10;;;;;;4117391;28;20066;-74
2022/05/23 02:32:00;;;;;;;3.65;1.55;;;15.10;90.80;;;;;;4117259;28;20901;-74
2022/05/23 02:34:03;;;;;;;2.67;1.27;;;15.10;90.80;;;;;;4118312;28;20059;-74
2022/05/23 02:36:05;;;;;;;1.33;1.10;;;15.10;90.80;;;;;;4116710;28;20059;-74
2022/05/23 02:38:07;;;;;;;2.08;1.13;;;15.10;90.80;;;;;;4116373;28;20835;-74
2022/05/23 02:40:09;;;;;;;1.55;1.35;;;15.10;90.70;;;;;;4119484;28;20059;-74
2022/05/23 02:42:11;;;;;;;1.35;1.13;;;15.10;90.50;;;;;;4116148;28;20063;-74
2022/05/23 02:44:13;;;;;;;1.90;1.33;;;15.00;90.20;;;;;;4118095;28;20126;-75
2022/05/23 02:46:15;;;;;;;1.45;1.10;;;15.00;90.50;;;;;;4118912;28;20157;-75
2022/05/23 02:48:22;;;;;;;1.15;1.05;;;15.00;90.80;;;;;;4117844;28;20122;-75
2022/05/23 02:50:24;;;;;;;1.77;1.20;;;15.00;90.70;;;;;;4116559;28;20062;-74
2022/05/23 02:52:25;;;;;;;1.98;1.15;;;15.00;90.60;;;;;;4115880;28;20059;-74
2022/05/23 02:54:27;;;;;;;2.70;1.40;;;15.00;90.30;;;;;;4116427;28;20162;-74
2022/05/23 02:56:30;;;;;;;1.52;1.30;;;15.00;90.30;;;;;;4117192;28;20051;-74
2022/05/23 02:58:31;;;;;;;1.38;1.27;;;15.00;90.50;;;;;;4116689;28;20061;-75
2022/05/23 03:00:35;;;;;;;3.17;1.10;;;15.00;90.70;;;;;;4116369;28;20063;-74
2022/05/23 03:04:57;;;;;;;1.60;1.08;;;15.00;90.70;;;;;;4115011;28;20162;-74
2022/05/23 03:06:59;;;;;;;2.88;1.30;;;15.10;90.70;;;;;;4115635;28;20164;-74
2022/05/23 03:09:01;;;;;;;2.67;0.90;;;15.10;90.50;;;;;;4115809;28;20756;-74
2022/05/23 03:11:05;;;;;;;1.63;1.30;;;15.10;90.60;;;;;;4115438;28;20905;-75
2022/05/23 03:13:07;;;;;;;1.55;1.42;;;15.00;90.80;;;;;;4116485;28;20059;-74
2022/05/23 03:15:10;;;;;;;1.63;1.52;;;15.00;90.70;;;;;;4115450;28;20091;-75
2022/05/23 03:17:11;;;;;;;2.40;1.10;;;15.00;90.80;;;;;;4113814;28;20066;-74
2022/05/23 03:19:13;;;;;;;2.85;1.50;;;15.00;90.80;;;;;;4115407;28;20059;-74
2022/05/23 03:26:58;;;;;;;1.40;1.08;;;15.00;90.70;;;;;;4114323;28;20065;-74
2022/05/23 03:28:22;;;;;;;1.77;1.52;;;15.00;90.70;;;;;;4115422;28;20059;-74
2022/05/23 03:30:24;;;;;;;1.38;1.25;;;15.00;90.70;;;;;;4114310;28;20061;-74
2022/05/23 03:32:25;;;;;;;4.32;1.30;;;15.00;90.80;;;;;;4115928;28;20065;-74
2022/05/23 03:34:27;;;;;;;2.95;1.20;;;15.00;90.80;;;;;;4116743;28;20070;-74
2022/05/23 03:36:29;;;;;;;2.53;1.38;;;15.10;90.50;;;;;;4117554;28;21364;-74
2022/05/23 03:38:31;;;;;;;2.10;1.75;;;15.10;90.20;;;;;;4116274;28;20652;-74
2022/05/23 03:40:34;;;;;;;2.88;1.42;;;15.10;90.10;;;;;;4115761;28;20058;-74
2022/05/23 03:42:36;;;;;;;2.70;1.85;;;15.10;90.00;;;;;;4117214;28;20150;-74
2022/05/23 03:44:38;;;;;;;1.40;1.27;;;15.10;90.00;;;;;;4117634;28;20890;-74
2022/05/23 03:46:40;;;;;;;0.95;0.93;;;15.20;89.40;;;;;;4117095;28;20059;-74
2022/05/23 03:48:42;;;;;;;1.45;1.35;;;15.30;88.20;;;;;;4115236;28;20102;-74
2022/05/23 03:50:44;;;;;;;1.15;0.93;;;15.40;86.60;;;;;;4114714;28;20059;-74
2022/05/23 03:52:45;;;;;;;1.58;1.00;;;15.50;85.60;;;;;;4116404;28;20574;-74
2022/05/23 03:54:47;;;;;;;1.65;1.10;;;15.60;85.30;;;;;;4118145;28;20065;-74
2022/05/23 03:56:49;;;;;;;1.95;1.00;;;15.70;85.10;;;;;;4115325;28;20178;-74
2022/05/23 03:58:50;;;;;;;1.88;0.88;;;15.80;83.80;;;;;;4117128;28;20853;-78
2022/05/23 04:00:52;;;;;;;1.50;1.02;;;15.90;83.20;;;;;;4116039;28;20078;-74
2022/05/23 04:02:54;;;;;;;1.23;1.13;;;16.00;82.70;;;;;;4114841;28;20059;-74
2022/05/23 04:04:56;;;;;;;1.45;1.02;;;16.10;82.00;;;;;;4118444;28;20074;-75
2022/05/23 04:07:03;;;;;;;1.60;1.10;;;16.10;81.60;;;;;;4115788;28;20063;-75
2022/05/23 04:09:04;;;;;;;1.00;0.90;;;16.10;81.40;;;;;;4115270;28;20052;-75
2022/05/23 04:11:07;;;;;;;1.85;0.90;;;16.20;81.00;;;;;;4114158;28;20138;-75
2022/05/23 04:13:08;;;;;;;2.30;1.00;;;16.20;80.40;;;;;;4117377;28;20082;-75
2022/05/23 04:15:11;;;;;;;2.13;1.00;;;16.30;80.10;;;;;;4118665;28;20050;-74
2022/05/23 04:17:13;;;;;;;2.97;1.23;;;16.30;79.00;;;;;;4114948;28;20058;-74
2022/05/23 04:19:15;;;;;;;2.45;1.10;;;16.40;79.70;;;;;;4115282;28;20059;-74
2022/05/23 04:21:17;;;;;;;5.55;1.17;;;16.40;80.20;;;;;;4114524;28;20057;-73
2022/05/23 04:23:19;;;;;;;1.42;1.02;;;16.40;80.90;;;;;;4117031;28;20779;-74
2022/05/23 04:25:21;;;;;;;2.35;1.30;;;16.30;81.50;;;;;;4115127;28;20158;-74
2022/05/23 04:27:22;;;;;;;1.55;1.20;;;16.30;81.50;;;;;;4112476;28;20093;-74
2022/05/23 04:29:24;;;;;;;2.50;1.23;;;16.20;82.30;;;;;;4117282;28;20150;-75
2022/05/23 04:31:26;;;;;;;6.70;1.30;;;16.20;82.70;;;;;;4117074;28;20059;-74
2022/05/23 04:35:54;;;;;;;0.93;0.82;;;16.20;82.90;;;;;;4117273;28;20063;-74
2022/05/23 04:37:56;;;;;;;1.13;0.93;;;16.20;82.80;;;;;;4119110;28;20074;-74
2022/05/23 04:39:57;;;;;;;1.30;1.20;;;16.20;83.10;;;;;;4118197;28;20806;-75
2022/05/23 04:42:00;;;;;;;3.35;1.25;;;16.20;88.90;;;;;;4117599;28;20066;-75
2022/05/23 04:44:02;;;;;;;2.40;1.58;;;16.00;93.20;;;;;;4117096;28;20066;-74
2022/05/23 04:46:03;;;;;;;2.83;1.40;;;15.60;99.90;;;;;;4117905;28;20059;-74
2022/05/23 04:50:26;;;;;;;4.88;1.85;;;15.00;99.90;;;;;;4117087;28;20061;-73
2022/05/23 04:52:28;;;;;;;4.43;2.13;;;14.80;99.90;;;;;;4116775;28;20158;-73
2022/05/23 04:54:30;;;;;;;2.08;1.52;;;14.70;99.90;;;;;;4118225;28;20784;-73
2022/05/23 04:56:32;;;;;;;5.72;1.70;;;14.60;99.90;;;;;;4118038;28;20060;-74
2022/05/23 04:58:34;;;;;;;2.63;1.67;;;14.50;99.90;;;;;;4118117;28;20055;-74
2022/05/23 05:00:39;;;;;;;5.00;1.95;;;14.50;99.90;;;;;;4118731;28;20051;-73
2022/05/23 05:02:48;;;;;;;1.50;1.40;;;14.50;99.90;;;;;;4116367;28;20070;-73
2022/05/23 05:04:50;;;;;;;1.60;1.50;;;14.50;99.90;;;;;;4117063;28;20123;-73
2022/05/23 05:06:52;;;;;;;1.92;1.80;;;14.40;99.90;;;;;;4118406;28;20065;-73
2022/05/23 05:08:53;;;;;;;1.45;1.38;;;14.40;99.90;;;;;;4118495;28;20059;-73
2022/05/23 05:10:57;;;;;;;1.42;1.27;;;14.40;99.90;;;;;;4119205;28;20917;-73
2022/05/23 05:12:59;;;;;;;1.83;1.73;;;14.40;99.90;;;;;;4118476;28;20065;-73
2022/05/23 05:15:01;;;;;;;5.03;1.95;;;14.40;99.90;;;;;;4117585;28;20055;-74
2022/05/23 05:17:03;;;;;;;3.10;1.67;;;14.40;99.90;;;;;;4119710;28;20055;-74
2022/05/23 05:19:05;;;;;;;2.10;1.83;;;14.40;99.90;;;;;;4120243;28;20149;-74
2022/05/23 05:21:09;;;;;;;2.45;2.00;;;14.50;99.90;;;;;;4116215;28;20059;-73
2022/05/23 05:23:11;;;;;;;3.28;2.42;;;14.60;99.90;;;;;;4118174;28;20771;-74
2022/05/23 05:25:14;;;;;;;2.17;1.73;;;14.70;99.90;;;;;;4117115;28;20062;-73
2022/05/23 05:27:16;;;;;;;4.82;3.03;;;14.80;99.90;;;;;;4118167;28;20059;-73
2022/05/23 05:29:18;;;;;;;3.53;2.10;;;14.80;99.90;;;;;;4121641;28;20880;-74
2022/05/23 05:31:43;;;;;;;2.33;2.13;;;14.90;99.90;;;;;;4118438;28;20685;-75
2022/05/23 05:33:59;;;;;;;1.83;1.65;;;14.90;99.90;;;;;;4116782;28;20055;-74
2022/05/23 05:36:06;;;;;;;5.45;1.83;;;14.90;99.90;;;;;;4117545;28;20162;-74
2022/05/23 05:38:16;;;;;;;8.73;2.70;;;14.80;99.90;;;;;;4115962;28;20070;-74
2022/05/23 05:40:22;;;;;;;4.15;2.80;;;14.80;99.90;;;;;;4116197;28;20114;-74
2022/05/23 05:42:28;;;;;;;2.85;2.08;;;14.70;99.90;;;;;;4112139;28;20150;-74
2022/05/23 05:44:33;;;;;;;3.95;2.35;;;14.70;99.90;;;;;;4116674;28;20069;-75
2022/05/23 05:46:41;;;;;;;2.97;2.72;;;14.70;99.90;;;;;;4115267;28;20957;-74
2022/05/23 05:48:46;;;;;;;4.60;2.53;;;14.70;99.90;;;;;;4116559;28;20625;-74
2022/05/23 05:50:49;;;;;;;3.00;2.60;;;14.70;99.90;;;;;;4114069;28;20094;-73
2022/05/23 05:52:55;;;;;;;3.08;2.70;;;14.80;99.90;;;;;;4114673;28;20805;-74
2022/05/23 05:54:58;;;;;;;2.95;2.75;;;14.80;99.90;;;;;;4115403;28;20097;-74
2022/05/23 05:57:02;;;;;;;3.72;3.08;;;14.80;99.90;;;;;;4115555;28;21880;-74
2022/05/23 05:59:03;;;;;;;3.20;2.67;;;14.90;99.90;;;;;;4115498;28;20166;-74
2022/05/23 06:01:05;;;;;;;2.63;2.42;;;14.90;99.90;;;;;;4114158;28;20149;-74
2022/05/23 06:03:07;;;;;;;4.90;2.75;;;15.10;99.90;;;;;;4115967;28;20182;-74
2022/05/23 06:05:10;;;;;;;7.50;2.55;;;15.10;99.90;;;;;;4115229;28;20126;-75
2022/05/23 06:12:09;;;;;;;4.22;3.22;;;15.50;99.90;;;;;;4112943;28;20093;-75
2022/05/23 06:14:11;;;;;;;5.13;3.33;;;15.70;99.90;;;;;;4115673;28;20860;-75
2022/05/23 06:16:13;;;;;;;5.72;3.55;;;15.70;99.90;;;;;;4115406;28;20622;-75
2022/05/23 06:18:14;;;;;;;9.57;3.28;;;15.70;99.90;;;;;;4114308;28;20057;-75
2022/05/23 06:20:16;;;;;;;4.63;3.10;;;15.80;99.90;;;;;;4113774;28;20214;-75
2022/05/23 06:22:18;;;;;;;6.18;3.03;;;15.90;99.90;;;;;;4112796;28;20059;-76
2022/05/23 06:24:20;;;;;;;4.40;3.03;;;15.90;99.90;;;;;;4116298;28;20843;-76
2022/05/23 06:26:26;;;;;;;5.97;2.92;;;15.90;99.90;;;;;;4116471;28;20182;-77
2022/05/23 06:28:27;;;;;;;4.55;3.78;;;16.00;99.90;;;;;;4114338;28;20092;-76
2022/05/23 06:30:29;;;;;;;6.30;3.90;;;16.00;99.90;;;;;;4114675;28;20520;-75
2022/05/23 06:32:31;;;;;;;3.90;3.13;;;16.00;99.90;;;;;;4117755;28;20058;-76
2022/05/23 06:34:33;;;;;;;2.92;2.70;;;16.00;99.90;;;;;;4115713;28;20066;-75
2022/05/23 06:36:36;;;;;;;5.53;2.90;;;16.00;99.90;;;;;;4109544;28;20059;-77
2022/05/23 06:38:40;;;;;;;4.95;3.58;;;16.00;99.90;;;;;;4115395;28;20162;-77
2022/05/23 06:40:42;;;;;;;5.80;3.10;;;16.00;99.90;;;;;;4115113;28;20157;-77
2022/05/23 06:42:43;;;;;;;8.20;3.03;;;16.10;99.90;;;;;;4115204;28;20142;-77
2022/05/23 06:44:45;;;;;;;4.80;2.88;;;16.00;99.90;;;;;;4105392;28;20082;-76
2022/05/23 06:46:47;;;;;;;6.88;3.33;;;16.00;99.90;;;;;;4119236;28;20063;-78
2022/05/23 06:48:49;;;;;;;4.78;3.28;;;16.00;99.90;;;;;;4115315;28;20639;-77
2022/05/23 06:50:51;;;;;;;3.85;2.75;;;16.10;99.90;;;;;;4114622;28;20066;-78
2022/05/23 06:52:53;;;;;;;3.58;2.70;;;16.20;99.90;;;;;;4111595;28;20169;-78
2022/05/23 06:54:55;;;;;;;5.45;3.33;;;16.20;99.90;;;;;;4114184;28;20063;-77
2022/05/23 06:57:05;;;;;;;4.22;2.70;;;16.40;99.90;;;;;;4115409;28;20071;-77
2022/05/23 06:59:09;;;;;;;3.78;2.55;;;16.40;99.90;;;;;;4116866;28;20145;-78
2022/05/23 07:01:11;;;;;;;3.42;2.80;;;16.30;99.90;;;;;;4114560;28;20063;-77
2022/05/23 07:03:13;;;;;;;3.28;2.78;;;16.40;99.90;;;;;;4117373;28;20067;-76
2022/05/23 07:12:27;;;;;;;3.58;2.22;;;16.50;99.90;;;;;;4119724;28;20069;-77
2022/05/23 07:14:28;;;;;;;4.78;2.67;;;16.60;99.60;;;;;;4115287;28;20590;-77
2022/05/23 07:16:32;;;;;;;4.07;2.42;;;16.70;98.90;;;;;;4116818;28;20089;-77
2022/05/23 07:18:33;;;;;;;4.63;2.72;;;16.60;99.00;;;;;;4114556;28;20934;-77
2022/05/23 07:20:35;;;;;;;3.67;2.70;;;16.80;99.70;;;;;;4116507;28;20767;-77
2022/05/23 07:22:37;;;;;;;4.25;2.78;;;17.00;99.30;;;;;;4117016;28;20109;-77
2022/05/23 07:24:39;;;;;;;4.85;2.33;;;17.10;98.00;;;;;;4115273;28;20063;-78
2022/05/23 07:26:41;;;;;;;2.95;2.75;;;17.30;97.20;;;;;;4116021;28;20059;-78
2022/05/23 07:28:44;;;;;;;2.67;2.03;;;17.30;96.90;;;;;;4111234;28;20054;-77
2022/05/23 07:30:46;;;;;;;2.40;2.17;;;17.30;97.50;;;;;;4112250;28;20063;-77
2022/05/23 07:32:49;;;;;;;3.90;2.80;;;17.30;96.70;;;;;;4115546;28;20133;-77
2022/05/23 07:34:51;;;;;;;3.67;2.45;;;17.50;97.20;;;;;;4112036;28;20063;-78
2022/05/23 07:36:53;;;;;;;3.22;2.70;;;17.60;96.20;;;;;;4116335;28;20055;-76
2022/05/23 07:38:55;;;;;;;4.07;2.35;;;17.70;97.20;;;;;;4112266;28;20177;-74
2022/05/23 07:40:58;;;;;;;3.22;2.92;;;17.90;95.90;;;;;;4116199;28;20807;-76
2022/05/23 07:42:59;;;;;;;3.25;2.20;;;17.90;94.90;;;;;;4116649;28;20069;-77
2022/05/23 07:45:02;;;;;;;5.63;2.72;;;17.90;94.90;;;;;;4115486;28;20043;-76
2022/05/23 07:47:06;;;;;;;2.80;2.50;;;17.90;95.10;;;;;;4115121;28;20062;-77
2022/05/23 07:49:08;;;;;;;4.28;2.30;;;17.80;96.40;;;;;;4114110;28;20058;-77
2022/05/23 07:51:11;;;;;;;1.80;1.70;;;17.80;96.50;;;;;;4114861;28;20055;-77
2022/05/23 08:00:34;;;;;;;2.20;1.98;;;18.20;97.60;;;;;;4181919;28;20894;-78
2022/05/23 08:02:35;;;;;;;3.60;2.08;;;18.30;96.50;;;;;;4177800;28;20666;-77
2022/05/23 08:04:38;;;;;;;2.13;1.58;;;18.50;95.10;;;;;;4181303;28;20057;-77
2022/05/23 08:06:40;;;;;;;2.72;1.83;;;18.80;95.10;;;;;;4183542;28;20053;-77
2022/05/23 08:08:42;;;;;;;3.58;1.88;;;19.00;93.20;;;;;;4181159;28;20080;-77
2022/05/23 08:10:44;;;;;;;1.83;1.60;;;19.10;93.70;;;;;;4183525;28;20068;-77
2022/05/23 08:12:50;;;;;;;4.20;1.90;;;19.20;91.60;;;;;;4182300;28;20084;-77
2022/05/23 08:14:52;;;;;;;2.30;2.10;;;19.20;91.90;;;;;;4175403;28;20054;-77
2022/05/23 08:16:53;;;;;;;1.80;1.45;;;19.30;92.20;;;;;;4167900;28;20152;-77
2022/05/23 08:18:56;;;;;;;2.63;1.83;;;19.20;92.20;;;;;;4183717;28;20062;-76
2022/05/23 08:20:57;;;;;;;2.22;1.63;;;19.20;92.80;;;;;;4182984;28;20915;-77
2022/05/23 08:22:59;;;;;;;4.53;2.08;;;19.10;92.80;;;;;;4179368;28;20781;-77
2022/05/23 08:25:01;;;;;;;2.95;1.73;;;19.00;93.70;;;;;;4179402;28;20064;-76
2022/05/23 08:27:04;;;;;;;2.45;1.90;;;19.00;94.40;;;;;;4179027;28;20148;-75
2022/05/23 08:29:06;;;;;;;2.78;1.58;;;18.90;94.30;;;;;;4183498;28;20100;-76
2022/05/23 08:31:08;;;;;;;4.32;1.77;;;18.90;93.70;;;;;;4175673;28;20894;-77
2022/05/23 08:33:11;;;;;;;2.40;2.20;;;18.90;94.30;;;;;;4174344;28;20062;-78
2022/05/23 08:35:14;;;;;;;1.67;1.58;;;18.90;94.40;;;;;;4173154;28;21104;-77
2022/05/23 08:37:16;;;;;;;3.78;1.83;;;19.00;94.70;;;;;;4172312;28;20062;-78
2022/05/23 08:39:18;;;;;;;2.85;1.70;;;19.00;93.30;;;;;;4176838;28;20101;-75
2022/05/23 08:41:26;;;;;;;3.35;2.00;;;18.90;93.60;;;;;;4186731;28;20046;-77
2022/05/23 08:43:39;;;;;;;3.33;2.50;;;19.00;94.10;;;;;;4178656;28;20776;-77
2022/05/23 08:45:44;;;;;;;1.75;1.65;;;18.80;95.00;;;;;;4170349;28;20148;-78
2022/05/23 08:48:03;;;;;;;2.83;1.65;;;18.80;94.60;;;;;;4178498;28;20163;-78
2022/05/23 08:50:17;;;;;;;2.03;1.83;;;18.80;94.50;;;;;;4183702;28;20053;-79
2022/05/23 08:52:43;;;;;;;1.60;1.50;;;19.00;94.40;;;;;;4179706;28;20942;-78
2022/05/23 08:55:02;;;;;;;3.55;1.48;;;19.10;93.40;;;;;;4181827;28;20054;-77
2022/05/23 08:57:07;;;;;;;1.70;1.60;;;19.30;93.00;;;;;;4171956;28;20100;-77
2022/05/23 08:59:38;;;;;;;1.70;1.60;;;19.40;92.60;;;;;;4182067;28;20090;-77
2022/05/23 09:02:06;;;;;;;3.80;1.70;;;19.50;93.30;;;;;;4175511;28;20053;-78
2022/05/23 09:04:13;;;;;;;2.58;1.67;;;19.50;93.70;;;;;;4174613;28;20067;-77
2022/05/23 09:06:20;;;;;;;1.83;1.55;;;19.50;93.70;;;;;;4204648;28;20062;-78
2022/05/23 09:08:27;;;;;;;3.05;1.60;;;19.60;93.30;;;;;;4200493;28;20076;-77
2022/05/23 09:10:46;;;;;;;1.88;1.77;;;19.50;93.30;;;;;;4182059;28;20053;-75
2022/05/23 09:12:53;;;;;;;3.92;1.85;;;19.40;93.70;;;;;;4182397;28;20080;-77
2022/05/23 09:15:02;;;;;;;2.92;1.88;;;19.30;94.10;;;;;;4170622;28;20118;-77
2022/05/23 09:17:12;;;;;;;2.67;2.30;;;19.20;94.40;;;;;;4176649;28;21012;-78
2022/05/23 09:19:31;;;;;;;1.92;1.75;;;19.10;95.40;;;;;;4186385;28;20864;-76
2022/05/23 09:23:53;;;;;;;2.97;1.75;;;19.00;96.70;;;;;;4185135;28;20177;-78
2022/05/23 09:25:56;;;;;;;2.75;1.77;;;18.90;97.50;;;;;;4182899;28;20964;-77
2022/05/23 09:28:33;;;;;;;2.05;1.90;;;18.90;96.70;;;;;;4183894;28;20092;-78
2022/05/23 09:30:37;;;;;;;2.13;1.80;;;19.00;95.90;;;;;;4159707;28;20815;-76
2022/05/23 09:33:14;;;;;;;2.15;1.90;;;19.00;96.10;;;;;;4182344;28;20907;-78
2022/05/23 09:35:26;;;;;;;1.80;1.55;;;19.10;96.10;;;;;;4194357;28;20116;-80
2022/05/23 09:37:39;;;;;;;2.03;1.55;;;19.20;95.80;;;;;;4169542;28;20120;-78
2022/05/23 09:39:56;;;;;;;1.75;1.65;;;19.40;95.40;;;;;;4183400;28;20051;-76
2022/05/23 09:49:23;;;;;;;3.53;1.83;;;20.10;94.60;;;;;;4170625;28;20096;-78
2022/05/23 09:51:25;;;;;;;2.15;1.38;;;20.30;93.90;;;;;;4170917;28;20100;-78
2022/05/23 09:53:31;;;;;;;3.17;1.90;;;20.30;93.70;;;;;;4174926;28;20057;-77
2022/05/23 09:55:37;;;;;;;3.50;1.92;;;20.40;93.20;;;;;;4172637;28;20053;-78
2022/05/23 09:57:41;;;;;;;3.58;2.17;;;20.60;93.30;;;;;;4182980;28;20057;-79
2022/05/23 09:59:43;;;;;;;3.20;1.80;;;20.80;93.10;;;;;;4180485;28;20168;-79
2022/05/23 10:01:45;;;;;;;1.58;1.48;;;21.10;92.40;;;;;;4173998;28;20097;-79
2022/05/23 10:03:49;;;;;;;1.90;1.70;;;21.20;91.90;;;;;;4180514;28;20064;-78
2022/05/23 10:06:04;;;;;;;2.70;1.83;;;21.30;91.40;;;;;;4172625;28;20068;-79
2022/05/23 10:08:10;;;;;;;4.07;1.35;;;21.40;90.60;;;;;;4179812;28;20959;-77
2022/05/23 10:10:18;;;;;;;3.08;1.77;;;21.40;91.40;;;;;;4172334;28;20067;-78
2022/05/23 10:12:22;;;;;;;2.17;1.98;;;21.40;91.00;;;;;;4184832;28;20176;-77
2022/05/23 10:14:37;;;;;;;3.47;1.75;;;21.30;91.30;;;;;;4183903;28;20064;-78
2022/05/23 10:16:51;;;;;;;1.63;1.52;;;21.20;91.60;;;;;;4175814;28;20059;-78
2022/05/23 10:19:04;;;;;;;2.13;1.92;;;21.20;91.40;;;;;;4176138;28;20859;-76
2022/05/23 10:21:26;;;;;;;1.58;1.48;;;21.20;92.30;;;;;;4172112;28;21111;-77
2022/05/23 10:23:30;;;;;;;2.90;1.60;;;21.10;92.00;;;;;;4173052;28;20603;-78
2022/05/23 10:25:39;;;;;;;1.77;1.63;;;21.10;92.20;;;;;;4175966;28;20065;-79
2022/05/23 10:27:56;;;;;;;3.13;1.80;;;21.10;92.40;;;;;;4168324;28;20101;-79
2022/05/23 10:30:01;;;;;;;2.45;1.98;;;21.10;92.20;;;;;;4169091;28;21105;-79
2022/05/23 10:32:10;;;;;;;1.73;1.58;;;21.10;92.50;;;;;;4170886;28;20052;-79
2022/05/23 10:34:27;;;;;;;2.03;1.83;;;21.10;92.20;;;;;;4174511;28;20061;-82
2022/05/23 10:36:30;;;;;;;3.47;1.80;;;21.10;91.90;;;;;;4174007;28;20153;-77
2022/05/23 10:43:25;;;;;;;2.53;2.20;;;20.70;91.70;;;;;;4186148;28;20061;-77
2022/05/23 10:45:43;;;;;;;4.20;2.70;;;20.70;92.10;;;;;;4171850;28;20061;-78
2022/05/23 10:47:48;;;;;;;2.45;2.13;;;20.50;93.00;;;;;;4166051;28;20113;-77
2022/05/23 10:50:07;;;;;;;5.93;2.83;;;20.40;93.20;;;;;;4173090;28;20796;-78
2022/05/23 10:52:19;;;;;;;2.55;1.88;;;20.40;93.30;;;;;;4169299;28;20121;-77
2022/05/23 10:54:47;;;;;;;4.50;2.17;;;20.30;93.40;;;;;;4168297;28;20072;-77
2022/05/23 10:56:58;;;;;;;2.42;2.17;;;20.20;93.50;;;;;;4165907;28;20062;-77
2022/05/23 10:59:22;;;;;;;2.58;1.67;;;20.20;94.30;;;;;;4174046;28;20064;-78
2022/05/23 11:01:44;;;;;;;2.42;1.95;;;20.10;94.10;;;;;;4178997;28;20045;-77
2022/05/23 11:04:10;;;;;;;2.25;2.00;;;20.00;95.10;;;;;;4180316;28;20815;-77
2022/05/23 11:06:19;;;;;;;1.80;1.70;;;19.90;96.30;;;;;;4178008;28;20759;-76
2022/05/23 11:08:40;;;;;;;4.68;2.47;;;19.80;96.80;;;;;;4172440;28;20105;-76
2022/05/23 11:10:58;;;;;;;4.65;2.42;;;19.70;98.10;;;;;;4173751;28;20056;-76
2022/05/23 11:13:12;;;;;;;4.97;2.47;;;19.60;99.90;;;;;;4172252;28;20088;-75
2022/05/23 11:15:36;;;;;;;2.92;2.33;;;19.40;99.90;;;;;;4171018;28;20137;-75
2022/05/23 11:17:56;;;;;;;4.35;2.10;;;19.30;99.90;;;;;;4172661;28;20065;-75
2022/05/23 11:20:04;;;;;;;7.82;2.83;;;19.20;99.90;;;;;;4173125;28;20058;-75
2022/05/23 11:22:38;;;;;;;6.43;2.80;;;19.10;99.90;;;;;;4171595;28;20064;-75
2022/05/23 11:24:52;;;;;;;4.15;2.60;;;18.90;99.90;;;;;;4172313;28;20056;-74
2022/05/23 11:34:30;;;;;;;10.13;4.70;;;18.40;99.90;;;;;;4167400;28;20061;-72
2022/05/23 11:39:07;;;;;;;6.07;4.28;;;18.20;99.90;;;;;;4134664;28;20058;-73
2022/05/23 11:41:10;;;;;;;3.50;3.00;;;18.10;99.90;;;;;;4171790;28;20065;-73
2022/05/23 11:43:17;;;;;;;10.18;4.22;;;18.00;99.90;;;;;;4178435;28;20061;-73
2022/05/23 11:47:51;;;;;;;7.45;3.05;;;17.80;99.90;;;;;;4173991;28;20065;-75
2022/05/23 11:50:04;;;;;;;8.00;2.13;;;17.70;99.90;;;;;;4180117;28;20062;-75
2022/05/23 11:52:17;;;;;;;6.20;2.80;;;17.60;99.90;;;;;;4174120;28;20145;-75
2022/05/23 11:54:32;;;;;;;4.10;1.95;;;17.60;99.90;;;;;;4176447;28;20772;-75
2022/05/23 11:57:02;;;;;;;4.90;1.70;;;17.40;99.90;;;;;;4175761;28;20783;-77
2022/05/23 11:59:06;;;;;;;7.13;1.98;;;17.30;99.90;;;;;;4183451;28;20800;-77